Time;durP1;ratioP1;P1;durP2;ratioP2;P2;SDS_P1;SDS_P2;PMS_P1;PMS_P2;Temp;Humidity;BMP_temperature;BMP_pressure;BME280_temperature;BME280_humidity;BME280_pressure;Samples;Min_cycle;Max_cycle;Signal;HPM_P1;HPM_P2
2024/01/08 00:01:03;;;;;;;15.88;10.00;;;;;;;-3.57;88.94;99788.31;5023992;28;20025;-76
2024/01/08 00:03:29;;;;;;;20.92;11.82;;;;;;;-3.78;89.42;99790.22;5022038;28;20037;-76
2024/01/08 00:05:54;;;;;;;18.92;11.95;;;;;;;-3.76;90.59;99791.75;5024219;28;20045;-78
2024/01/08 00:08:20;;;;;;;19.23;11.43;;;;;;;-3.50;88.87;99797.28;5027061;28;20033;-77
2024/01/08 00:10:45;;;;;;;18.85;10.70;;;;;;;-3.86;89.82;99801.31;5027594;28;20049;-77
2024/01/08 00:13:10;;;;;;;17.80;10.60;;;;;;;-3.25;88.99;99797.53;5021192;28;20040;-77
2024/01/08 00:15:36;;;;;;;17.23;11.73;;;;;;;-3.02;88.83;99785.03;5028923;28;20160;-78
2024/01/08 00:18:01;;;;;;;17.50;10.98;;;;;;;-3.35;87.92;99782.84;5027205;28;20473;-77
2024/01/08 00:20:27;;;;;;;21.08;10.88;;;;;;;-3.63;89.44;99786.28;5020580;28;20032;-77
2024/01/08 00:22:52;;;;;;;20.38;12.45;;;;;;;-3.71;90.06;99796.56;5021762;28;20032;-77
2024/01/08 00:25:21;;;;;;;23.25;10.88;;;;;;;-3.52;90.94;99799.19;5022488;28;20517;-77
2024/01/08 00:27:48;;;;;;;18.85;11.48;;;;;;;-3.65;89.36;99791.63;5023444;28;20033;-77
2024/01/08 00:30:13;;;;;;;18.67;11.07;;;;;;;-3.92;90.03;99802.69;5023362;28;20128;-77
2024/01/08 00:32:38;;;;;;;20.15;11.43;;;;;;;-3.32;90.60;99799.03;5021459;28;20434;-77
2024/01/08 00:35:04;;;;;;;18.77;10.98;;;;;;;-2.12;88.36;99788.75;5022071;28;20035;-79
2024/01/08 00:37:30;;;;;;;19.30;10.52;;;;;;;-2.95;89.01;99787.91;5023910;28;20033;-77
2024/01/08 00:39:55;;;;;;;24.73;12.85;;;;;;;-2.86;87.67;99781.84;5025364;28;20038;-78
2024/01/08 00:42:20;;;;;;;18.05;10.48;;;;;;;-3.43;87.87;99780.91;5025514;28;21851;-78
2024/01/08 00:44:46;;;;;;;19.55;11.25;;;;;;;-3.56;89.31;99796.00;5023330;28;20033;-77
2024/01/08 00:47:11;;;;;;;20.75;11.20;;;;;;;-2.91;90.33;99797.94;5031391;28;20159;-77
2024/01/08 00:49:36;;;;;;;20.63;10.85;;;;;;;-2.41;88.39;99788.03;5028719;28;20060;-78
2024/01/08 00:52:02;;;;;;;24.70;13.32;;;;;;;-2.88;87.23;99795.03;5032328;28;20029;-78
2024/01/08 00:54:27;;;;;;;20.63;11.32;;;;;;;-3.60;88.88;99810.28;5032823;28;20037;-77
2024/01/08 00:56:53;;;;;;;22.20;12.07;;;;;;;-3.85;91.13;99801.19;5030312;28;20038;-77
2024/01/08 00:59:18;;;;;;;20.67;10.95;;;;;;;-2.92;91.43;99796.28;5031722;28;20044;-78
2024/01/08 01:01:43;;;;;;;18.63;10.38;;;;;;;-2.27;88.88;99788.41;5031627;28;20041;-78
2024/01/08 01:04:08;;;;;;;20.33;11.63;;;;;;;-2.47;87.69;99788.63;5032798;28;20041;-77
2024/01/08 01:06:34;;;;;;;18.58;11.18;;;;;;;-3.52;87.50;99792.19;5026873;28;20124;-77
2024/01/08 01:08:59;;;;;;;23.60;12.02;;;;;;;-3.48;89.43;99803.16;5029359;28;20033;-77
2024/01/08 01:11:25;;;;;;;20.70;11.18;;;;;;;-3.25;87.86;99799.31;5022882;28;20037;-77
2024/01/08 01:13:50;;;;;;;23.08;12.80;;;;;;;-3.80;89.66;99796.38;5026014;28;20099;-77
2024/01/08 01:16:15;;;;;;;27.27;12.70;;;;;;;-3.63;90.38;99802.75;5030223;28;20116;-77
2024/01/08 01:18:41;;;;;;;23.33;12.05;;;;;;;-4.09;90.51;99811.16;5026477;28;20120;-77
2024/01/08 01:21:06;;;;;;;21.17;13.13;;;;;;;-3.61;90.19;99815.66;5024283;28;20386;-77
2024/01/08 01:23:32;;;;;;;19.55;11.63;;;;;;;-4.04;91.39;99813.38;5029049;28;20747;-76
2024/01/08 01:25:57;;;;;;;20.05;11.95;;;;;;;-3.42;91.68;99813.06;5027105;28;20037;-76
2024/01/08 01:28:23;;;;;;;21.80;11.48;;;;;;;-3.97;91.27;99822.28;5027589;28;20431;-76
2024/01/08 01:30:48;;;;;;;18.98;11.63;;;;;;;-3.70;90.76;99809.47;5028688;28;20035;-77
2024/01/08 01:33:13;;;;;;;18.05;11.43;;;;;;;-3.55;90.89;99809.88;5023648;28;20029;-77
2024/01/08 01:35:39;;;;;;;26.92;12.57;;;;;;;-4.00;91.24;99815.53;5025624;28;20099;-77
2024/01/08 01:38:04;;;;;;;22.20;12.65;;;;;;;-3.71;91.65;99807.78;5026093;28;20026;-77
2024/01/08 01:40:29;;;;;;;23.88;12.32;;;;;;;-3.58;91.15;99813.59;5022314;28;20057;-78
2024/01/08 01:42:55;;;;;;;21.90;13.27;;;;;;;-3.18;91.56;99811.69;5031727;28;20037;-78
2024/01/08 01:45:22;;;;;;;21.73;11.98;;;;;;;-3.50;91.10;99790.28;5030642;28;20106;-77
2024/01/08 01:47:48;;;;;;;19.08;11.45;;;;;;;-3.48;91.54;99811.00;5028620;28;20056;-77
2024/01/08 01:50:14;;;;;;;22.48;12.90;;;;;;;-3.78;90.44;99817.13;5026991;28;20033;-76
2024/01/08 01:52:40;;;;;;;26.90;13.50;;;;;;;-3.75;90.17;99810.81;5027666;28;20033;-77
2024/01/08 01:55:06;;;;;;;20.98;11.65;;;;;;;-3.58;90.33;99805.75;5025749;28;20474;-76
2024/01/08 01:57:32;;;;;;;25.60;12.60;;;;;;;-3.70;90.94;99804.25;5029574;28;20036;-76
2024/01/08 01:59:58;;;;;;;19.45;13.25;;;;;;;-4.01;90.44;99805.25;5028533;28;20029;-76
2024/01/08 02:02:27;;;;;;;21.77;14.43;;;;;;;-4.04;91.85;99810.75;4986868;28;1103432;-76
2024/01/08 02:04:54;;;;;;;23.38;12.93;;;;;;;-3.87;92.38;99802.28;5026725;28;20033;-77
2024/01/08 02:07:20;;;;;;;26.58;13.77;;;;;;;-3.45;90.51;99793.28;5029422;28;20452;-77
2024/01/08 02:09:45;;;;;;;21.33;12.48;;;;;;;-3.19;90.62;99791.75;5029310;28;20053;-77
2024/01/08 02:12:11;;;;;;;23.98;13.70;;;;;;;-4.08;91.74;99798.91;5029653;28;20501;-77
2024/01/08 02:14:37;;;;;;;22.73;13.95;;;;;;;-3.59;92.35;99780.66;5028680;28;20148;-77
2024/01/08 02:17:03;;;;;;;17.23;12.07;;;;;;;-2.54;90.50;99796.22;5025235;28;20038;-77
2024/01/08 02:19:28;;;;;;;23.88;13.07;;;;;;;-3.90;91.49;99802.53;5027166;28;20112;-76
2024/01/08 02:21:53;;;;;;;25.77;13.75;;;;;;;-2.87;91.05;99785.41;5028992;28;20100;-77
2024/01/08 02:24:19;;;;;;;27.33;13.30;;;;;;;-3.25;90.24;99783.66;5029665;28;20029;-77
2024/01/08 02:26:44;;;;;;;20.98;12.82;;;;;;;-3.58;89.29;99790.09;5025493;28;20041;-77
2024/01/08 02:29:10;;;;;;;25.92;12.77;;;;;;;-3.64;91.05;99780.22;5026489;28;20057;-77
2024/01/08 02:31:35;;;;;;;21.85;12.20;;;;;;;-3.73;91.17;99796.69;5027624;28;20411;-77
2024/01/08 02:34:00;;;;;;;25.80;15.65;;;;;;;-3.70;91.89;99778.16;5026204;28;20068;-77
2024/01/08 02:36:26;;;;;;;22.83;13.45;;;;;;;-3.36;91.21;99786.41;5027469;28;20029;-76
2024/01/08 02:38:51;;;;;;;20.65;12.73;;;;;;;-2.83;89.30;99792.00;5026678;28;20040;-77
2024/01/08 02:41:17;;;;;;;20.90;12.25;;;;;;;-3.62;90.99;99782.69;5029190;28;20037;-76
2024/01/08 02:43:42;;;;;;;25.27;12.25;;;;;;;-3.74;90.28;99782.00;5030946;28;20045;-76
2024/01/08 02:46:07;;;;;;;17.10;11.15;;;;;;;-3.87;91.70;99797.06;5026465;28;20034;-76
2024/01/08 02:48:33;;;;;;;18.20;10.77;;;;;;;-3.78;91.83;99787.63;5029220;28;20021;-76
2024/01/08 02:50:58;;;;;;;21.67;11.98;;;;;;;-4.07;90.49;99796.19;5028760;28;20030;-76
2024/01/08 02:53:24;;;;;;;26.42;12.95;;;;;;;-3.66;92.08;99784.75;5026243;28;20037;-76
2024/01/08 02:55:49;;;;;;;18.75;9.88;;;;;;;-3.82;90.79;99794.88;5029120;28;20046;-77
2024/01/08 02:58:15;;;;;;;14.45;9.68;;;;;;;-4.38;90.56;99796.34;5027093;28;20083;-77
2024/01/08 03:00:40;;;;;;;15.55;9.35;;;;;;;-4.33;90.83;99804.59;5020107;28;20304;-76
2024/01/08 03:03:06;;;;;;;11.13;7.40;;;;;;;-4.15;89.37;99814.25;5022708;28;20037;-78
2024/01/08 03:05:31;;;;;;;16.67;8.65;;;;;;;-4.34;89.41;99805.53;5023541;28;20040;-76
2024/01/08 03:07:56;;;;;;;11.57;7.88;;;;;;;-4.21;89.53;99816.56;5023698;28;20111;-77
2024/01/08 03:10:22;;;;;;;18.67;8.40;;;;;;;-3.73;88.07;99814.94;5022003;28;20038;-77
2024/01/08 03:12:47;;;;;;;17.20;7.32;;;;;;;-4.27;86.82;99811.88;5012711;28;20033;-77
2024/01/08 03:15:13;;;;;;;12.32;6.72;;;;;;;-4.30;86.02;99814.78;4997242;28;22096;-77
2024/01/08 03:17:38;;;;;;;9.10;5.90;;;;;;;-4.04;84.63;99813.38;5020866;28;20040;-77
2024/01/08 03:20:04;;;;;;;12.45;6.38;;;;;;;-3.88;83.47;99819.72;5021867;28;20067;-76
2024/01/08 03:22:29;;;;;;;7.78;5.72;;;;;;;-4.02;82.73;99820.06;5022022;28;20111;-76
2024/01/08 03:24:55;;;;;;;8.82;5.57;;;;;;;-4.04;82.60;99819.38;5022079;28;20064;-76
2024/01/08 03:27:20;;;;;;;8.40;5.78;;;;;;;-3.80;82.78;99821.66;5022335;28;20052;-76
2024/01/08 03:29:46;;;;;;;7.72;4.57;;;;;;;-3.92;80.47;99827.94;5020215;28;20156;-77
2024/01/08 03:32:11;;;;;;;8.70;5.75;;;;;;;-4.33;80.61;99828.88;5018715;28;20414;-76
2024/01/08 03:34:37;;;;;;;7.75;4.82;;;;;;;-4.40;79.36;99826.91;5021835;28;20075;-76
2024/01/08 03:37:02;;;;;;;7.43;4.50;;;;;;;-4.31;80.29;99820.91;5025580;28;20037;-76
2024/01/08 03:39:28;;;;;;;9.40;5.30;;;;;;;-3.94;81.02;99822.03;5027872;28;20563;-77
2024/01/08 03:41:53;;;;;;;8.75;5.72;;;;;;;-3.96;79.99;99823.94;5026460;28;20029;-76
2024/01/08 03:44:18;;;;;;;10.07;4.80;;;;;;;-3.82;81.15;99810.50;5026639;28;20029;-76
2024/01/08 03:46:44;;;;;;;8.10;4.30;;;;;;;-4.10;77.65;99811.25;5021551;28;20454;-77
2024/01/08 03:49:11;;;;;;;7.88;5.30;;;;;;;-4.22;78.50;99823.59;5025786;28;20030;-77
2024/01/08 03:51:37;;;;;;;8.63;4.97;;;;;;;-4.28;78.48;99824.09;5027378;28;20114;-77
2024/01/08 03:54:02;;;;;;;9.25;5.10;;;;;;;-4.16;77.72;99823.06;5025842;28;20454;-77
2024/01/08 03:56:28;;;;;;;7.82;4.70;;;;;;;-3.69;78.92;99818.91;5029461;28;20497;-77
2024/01/08 03:58:53;;;;;;;8.38;4.82;;;;;;;-3.92;77.92;99822.72;5026710;28;20033;-77
2024/01/08 04:01:18;;;;;;;8.55;4.45;;;;;;;-4.00;78.29;99827.78;5024847;28;20060;-76
2024/01/08 04:03:44;;;;;;;10.43;5.15;;;;;;;-4.14;77.00;99831.56;5025509;28;20044;-76
2024/01/08 04:06:09;;;;;;;8.52;5.32;;;;;;;-4.22;76.87;99828.78;5028447;28;20480;-76
2024/01/08 04:08:35;;;;;;;8.35;5.65;;;;;;;-4.05;76.88;99836.00;5022604;28;20379;-77
2024/01/08 04:11:00;;;;;;;10.00;5.85;;;;;;;-4.00;77.64;99831.19;5031915;28;20497;-77
2024/01/08 04:13:25;;;;;;;8.80;4.65;;;;;;;-3.93;76.38;99836.69;5032200;28;20128;-77
2024/01/08 04:15:51;;;;;;;6.50;4.53;;;;;;;-4.10;77.77;99826.91;5029587;28;20072;-77
2024/01/08 04:18:16;;;;;;;11.88;6.00;;;;;;;-4.03;77.21;99826.25;5036497;28;20033;-77
2024/01/08 04:20:41;;;;;;;8.57;4.93;;;;;;;-3.90;77.00;99833.84;5027445;28;20026;-77
2024/01/08 04:23:07;;;;;;;8.43;5.07;;;;;;;-3.89;77.13;99832.88;5034917;28;20474;-77
2024/01/08 04:25:33;;;;;;;9.00;5.65;;;;;;;-3.75;79.25;99842.09;5034623;28;20055;-77
2024/01/08 04:27:58;;;;;;;10.93;5.20;;;;;;;-3.45;79.84;99823.78;5031513;28;20041;-77
2024/01/08 04:30:23;;;;;;;9.48;5.35;;;;;;;-3.91;77.34;99827.78;5029548;28;20057;-77
2024/01/08 04:32:49;;;;;;;7.70;5.60;;;;;;;-3.22;79.95;99836.44;5024489;28;20067;-77
2024/01/08 04:35:14;;;;;;;8.75;5.13;;;;;;;-3.73;77.80;99841.00;5025625;28;20128;-77
2024/01/08 04:37:40;;;;;;;9.07;6.05;;;;;;;-3.48;77.98;99839.69;5032642;28;20071;-77
2024/01/08 04:40:07;;;;;;;12.20;6.10;;;;;;;-4.00;77.59;99849.44;5034611;28;20108;-77
2024/01/08 04:42:32;;;;;;;13.65;7.22;;;;;;;-3.91;77.58;99853.06;5032697;28;20080;-77
2024/01/08 04:44:58;;;;;;;8.68;5.07;;;;;;;-3.74;78.71;99848.97;5032676;28;20493;-77
2024/01/08 04:47:23;;;;;;;10.95;5.53;;;;;;;-4.13;76.86;99854.03;5034513;28;20029;-77
2024/01/08 04:49:48;;;;;;;9.88;5.53;;;;;;;-4.09;78.06;99844.19;5031377;28;20038;-77
2024/01/08 04:52:14;;;;;;;10.20;5.75;;;;;;;-4.10;77.11;99847.75;5027496;28;20405;-77
2024/01/08 04:54:42;;;;;;;8.82;5.57;;;;;;;-4.23;77.41;99868.00;5030824;28;20060;-78
2024/01/08 04:57:08;;;;;;;10.82;6.18;;;;;;;-3.25;79.76;99862.78;5030608;28;20043;-77
2024/01/08 04:59:43;;;;;;;11.82;6.88;;;;;;;-4.07;77.05;99870.97;5029474;28;20038;-77
2024/01/08 05:02:09;;;;;;;7.53;4.95;;;;;;;-4.16;77.08;99863.91;5029526;28;20044;-79
2024/01/08 05:04:34;;;;;;;9.60;6.25;;;;;;;-4.39;76.26;99862.44;5026714;28;20030;-76
2024/01/08 05:07:00;;;;;;;10.73;6.47;;;;;;;-4.01;76.92;99863.44;5026011;28;20033;-78
2024/01/08 05:09:26;;;;;;;8.15;5.82;;;;;;;-4.31;75.33;99860.00;5036386;28;20474;-78
2024/01/08 05:11:51;;;;;;;9.70;5.40;;;;;;;-4.24;74.13;99879.38;5031696;28;20033;-78
2024/01/08 05:14:16;;;;;;;9.07;4.90;;;;;;;-4.40;73.16;99877.25;5032870;28;20040;-79
2024/01/08 05:16:42;;;;;;;8.90;5.15;;;;;;;-4.57;72.45;99875.22;5023952;28;20042;-77
2024/01/08 05:19:07;;;;;;;5.85;4.28;;;;;;;-4.50;71.22;99870.31;5025459;28;20037;-77
2024/01/08 05:21:33;;;;;;;8.57;5.20;;;;;;;-4.44;72.58;99880.22;5027151;28;20707;-77
2024/01/08 05:23:59;;;;;;;9.80;4.68;;;;;;;-4.77;70.58;99874.25;5026495;28;20032;-77
2024/01/08 05:26:24;;;;;;;6.70;4.03;;;;;;;-4.69;70.51;99877.06;5031204;28;20394;-77
2024/01/08 05:28:50;;;;;;;8.85;4.70;;;;;;;-5.03;69.07;99880.78;5033017;28;20040;-77
2024/01/08 05:31:15;;;;;;;7.13;4.30;;;;;;;-5.07;68.95;99894.16;5030477;28;20021;-77
2024/01/08 05:33:41;;;;;;;6.18;4.13;;;;;;;-5.11;70.13;99890.97;5023986;28;20041;-76
2024/01/08 05:36:07;;;;;;;6.88;3.92;;;;;;;-4.92;70.33;99898.97;5030472;28;20764;-77
2024/01/08 05:38:32;;;;;;;6.72;3.80;;;;;;;-5.03;68.84;99886.00;5030119;28;20030;-77
2024/01/08 05:40:57;;;;;;;11.02;4.05;;;;;;;-5.25;67.57;99899.06;5024614;28;20041;-77
2024/01/08 05:43:23;;;;;;;11.18;4.88;;;;;;;-4.99;69.13;99894.34;5024000;28;20391;-76
2024/01/08 05:45:49;;;;;;;7.32;4.00;;;;;;;-5.28;66.82;99901.06;5024634;28;20077;-77
2024/01/08 05:48:14;;;;;;;8.90;4.82;;;;;;;-5.07;66.83;99904.56;5028350;28;20923;-76
2024/01/08 05:50:39;;;;;;;10.32;5.03;;;;;;;-5.18;65.55;99900.25;5023464;28;20040;-77
2024/01/08 05:53:05;;;;;;;7.88;4.65;;;;;;;-5.50;64.23;99891.56;5026163;28;20514;-77
2024/01/08 05:55:30;;;;;;;6.03;4.90;;;;;;;-5.07;66.55;99891.56;5026526;28;20512;-77
2024/01/08 05:57:56;;;;;;;6.90;4.30;;;;;;;-5.54;nan;99903.16;5022138;28;20036;-77
2024/01/08 06:00:21;;;;;;;9.18;4.45;;;;;;;-5.69;61.75;99905.19;5030551;28;20505;-77
2024/01/08 06:02:47;;;;;;;11.30;4.88;;;;;;;-5.59;60.11;99913.91;5029772;28;20069;-77
2024/01/08 06:05:13;;;;;;;9.27;5.00;;;;;;;-5.83;57.86;99915.81;5027754;28;20036;-77
2024/01/08 06:07:39;;;;;;;6.53;4.50;;;;;;;-5.59;60.05;99916.50;5022722;28;20063;-77
2024/01/08 06:10:04;;;;;;;10.73;4.55;;;;;;;-5.70;57.85;99926.91;5023145;28;20454;-77
2024/01/08 06:12:30;;;;;;;5.88;4.40;;;;;;;-5.88;58.27;99909.38;5024374;28;20029;-77
2024/01/08 06:14:55;;;;;;;7.32;4.38;;;;;;;-5.91;58.02;99925.19;5028358;28;20029;-77
2024/01/08 06:17:21;;;;;;;9.80;4.93;;;;;;;-5.97;58.33;99930.84;5021116;28;20685;-77
2024/01/08 06:19:46;;;;;;;5.28;3.72;;;;;;;-6.28;58.60;99930.59;5022737;28;20038;-77
2024/01/08 06:22:12;;;;;;;14.00;4.70;;;;;;;-6.20;57.87;99935.19;5024846;28;20026;-78
2024/01/08 06:24:37;;;;;;;8.32;4.28;;;;;;;-6.38;57.23;99940.03;5034775;28;20029;-78
2024/01/08 06:27:03;;;;;;;9.45;4.72;;;;;;;-6.01;58.51;99940.66;5026427;28;20500;-77
2024/01/08 06:29:28;;;;;;;11.23;5.35;;;;;;;-5.68;59.85;99948.41;5026797;28;20558;-77
2024/01/08 06:31:53;;;;;;;9.27;5.03;;;;;;;-5.67;62.41;99938.84;5021949;28;20104;-77
2024/01/08 06:34:22;;;;;;;6.35;4.55;;;;;;;-5.65;61.07;99936.97;5026712;28;20463;-77
2024/01/08 06:36:47;;;;;;;6.57;4.60;;;;;;;-5.70;60.43;99939.09;5029537;28;20032;-77
2024/01/08 06:39:13;;;;;;;9.18;4.38;;;;;;;-6.30;59.18;99937.69;5029081;28;20821;-77
2024/01/08 06:41:38;;;;;;;11.18;5.00;;;;;;;-6.06;58.53;99942.78;5026384;28;20033;-77
2024/01/08 06:44:04;;;;;;;9.50;5.13;;;;;;;-5.94;58.93;99949.63;5024601;28;20042;-77
2024/01/08 06:46:30;;;;;;;8.13;4.68;;;;;;;-5.24;63.18;99954.53;5027869;28;20029;-77
2024/01/08 06:48:55;;;;;;;11.30;6.25;;;;;;;-5.64;58.18;99952.47;5026915;28;20083;-78
2024/01/08 06:51:21;;;;;;;7.15;4.70;;;;;;;-6.20;59.28;99951.63;5024512;28;20052;-78
2024/01/08 06:53:47;;;;;;;7.95;5.07;;;;;;;-5.64;62.40;99962.84;5023678;28;20025;-78
2024/01/08 06:56:12;;;;;;;9.50;4.32;;;;;;;-6.33;58.36;99943.09;5020736;28;20092;-77
2024/01/08 06:58:38;;;;;;;7.30;4.40;;;;;;;-6.72;57.24;99947.81;5021466;28;20437;-77
2024/01/08 07:01:05;;;;;;;8.63;4.90;;;;;;;-6.25;60.80;99938.16;5024625;28;20032;-77
2024/01/08 07:03:30;;;;;;;8.68;5.20;;;;;;;-6.61;57.64;99953.88;5024666;28;20486;-77
2024/01/08 07:05:56;;;;;;;6.57;4.07;;;;;;;-6.11;59.21;99956.13;5024292;28;20041;-76
2024/01/08 07:08:21;;;;;;;6.70;4.40;;;;;;;-6.22;59.77;99955.25;5019408;28;20126;-77
2024/01/08 07:10:47;;;;;;;14.02;5.22;;;;;;;-6.17;58.76;99956.59;5027679;28;20527;-78
2024/01/08 07:13:18;;;;;;;13.18;7.82;;;;;;;-6.07;60.25;99956.69;5028592;28;20037;-77
2024/01/08 07:15:46;;;;;;;9.07;6.38;;;;;;;-6.28;61.81;99966.97;5026546;28;20030;-77
2024/01/08 07:18:12;;;;;;;12.02;5.25;;;;;;;-5.98;63.34;99976.00;5026672;28;20053;-77
2024/01/08 07:20:39;;;;;;;13.32;5.15;;;;;;;-5.90;63.98;99977.06;5028116;28;20030;-77
2024/01/08 07:23:06;;;;;;;7.95;5.13;;;;;;;-6.60;60.67;99978.91;5027607;28;20305;-77
2024/01/08 07:25:34;;;;;;;10.15;5.13;;;;;;;-5.80;65.17;99987.53;5028814;28;20056;-77
2024/01/08 07:28:00;;;;;;;9.65;5.78;;;;;;;-6.28;62.19;99989.50;5027831;28;20029;-77
2024/01/08 07:30:25;;;;;;;8.85;4.93;;;;;;;-6.60;63.29;99985.88;5027059;28;20034;-77
2024/01/08 07:32:51;;;;;;;11.55;5.22;;;;;;;-6.79;62.09;99996.75;5026632;28;20549;-77
2024/01/08 07:35:16;;;;;;;9.93;5.68;;;;;;;-6.90;62.54;99996.69;5026493;28;20025;-77
2024/01/08 07:37:42;;;;;;;16.48;5.28;;;;;;;-6.45;64.04;100006.34;5025977;28;20409;-77
2024/01/08 07:40:08;;;;;;;14.90;6.07;;;;;;;-6.94;61.72;100010.81;5024763;28;20033;-77
2024/01/08 07:42:33;;;;;;;10.48;5.20;;;;;;;-6.88;62.38;100000.03;5027908;28;20029;-76
2024/01/08 07:44:58;;;;;;;9.25;5.25;;;;;;;-6.63;62.08;99999.88;5023480;28;20084;-76
2024/01/08 07:47:24;;;;;;;11.98;6.43;;;;;;;-6.88;62.04;100010.41;5013494;28;20029;-77
2024/01/08 07:49:49;;;;;;;12.25;6.03;;;;;;;-6.70;63.13;100019.44;5026579;28;20030;-77
2024/01/08 07:52:15;;;;;;;17.05;5.80;;;;;;;-6.39;65.15;100013.66;5021114;28;20042;-76
2024/01/08 07:54:40;;;;;;;13.85;6.55;;;;;;;-6.61;62.80;100026.56;5029962;28;20544;-77
2024/01/08 07:57:05;;;;;;;12.23;6.93;;;;;;;-6.98;63.00;100023.19;5019321;28;20029;-77
2024/01/08 07:59:31;;;;;;;11.52;6.50;;;;;;;-7.21;61.71;100031.78;5020848;28;20053;-77
2024/01/08 08:01:56;;;;;;;12.27;6.18;;;;;;;-7.45;61.15;100033.47;5019426;28;20068;-76
2024/01/08 08:04:22;;;;;;;14.02;7.40;;;;;;;-7.33;60.98;100045.59;5025748;28;20103;-77
2024/01/08 08:06:47;;;;;;;11.88;7.13;;;;;;;-6.97;61.67;100040.41;5022521;28;20037;-77
2024/01/08 08:09:12;;;;;;;12.75;7.45;;;;;;;-6.44;64.17;100051.31;5025118;28;20385;-77
2024/01/08 08:11:41;;;;;;;15.30;6.07;;;;;;;-6.48;61.70;100044.66;5025243;28;20505;-77
2024/01/08 08:14:07;;;;;;;12.45;6.70;;;;;;;-7.03;61.20;100058.16;5027182;28;20091;-76
2024/01/08 08:16:32;;;;;;;10.82;6.18;;;;;;;-6.97;61.67;100050.78;5031690;28;20029;-77
2024/01/08 08:18:58;;;;;;;11.15;6.13;;;;;;;-7.02;61.75;100057.25;5031107;28;20037;-77
2024/01/08 08:21:23;;;;;;;17.40;6.60;;;;;;;-6.49;64.26;100059.44;5028539;28;20037;-76
2024/01/08 08:23:49;;;;;;;7.15;4.40;;;;;;;-7.18;62.45;100057.47;5024891;28;20533;-77
2024/01/08 08:26:14;;;;;;;19.10;6.07;;;;;;;-7.36;61.68;100048.38;5021859;28;20025;-76
2024/01/08 08:28:40;;;;;;;10.98;6.28;;;;;;;-6.67;63.64;100073.72;5028394;28;20619;-76
2024/01/08 08:31:05;;;;;;;14.77;7.53;;;;;;;-6.89;61.90;100060.63;5025763;28;20037;-76
2024/01/08 08:33:30;;;;;;;13.77;7.15;;;;;;;-6.36;63.84;100069.75;5027216;28;20060;-76
2024/01/08 08:35:56;;;;;;;14.90;7.13;;;;;;;-7.18;61.89;100074.78;5023316;28;20033;-76
2024/01/08 08:38:21;;;;;;;17.52;7.10;;;;;;;-6.36;65.05;100077.53;5024775;28;20046;-79
2024/01/08 08:40:46;;;;;;;15.35;6.45;;;;;;;-6.72;62.41;100075.81;5030937;28;20124;-78
2024/01/08 08:43:12;;;;;;;15.52;6.45;;;;;;;-6.79;62.07;100086.75;5028736;28;20041;-78
2024/01/08 08:45:37;;;;;;;15.77;7.78;;;;;;;-6.79;62.52;100081.56;5022575;28;20061;-76
2024/01/08 08:48:04;;;;;;;17.20;6.75;;;;;;;-6.49;62.90;100085.41;5024025;28;20084;-76
2024/01/08 08:50:29;;;;;;;13.45;6.63;;;;;;;-6.83;62.41;100093.91;5019876;28;20029;-75
2024/01/08 08:52:54;;;;;;;17.60;7.82;;;;;;;-6.38;63.70;100092.41;5026419;28;20026;-75
2024/01/08 08:55:20;;;;;;;11.65;6.40;;;;;;;-7.06;62.04;100103.31;5025745;28;20053;-76
2024/01/08 08:57:45;;;;;;;13.00;6.40;;;;;;;-7.09;62.25;100103.53;5026592;28;20033;-75
2024/01/08 09:00:11;;;;;;;13.75;6.57;;;;;;;-6.48;64.21;100109.56;5030513;28;20033;-75
2024/01/08 09:02:36;;;;;;;13.95;6.82;;;;;;;-6.36;64.56;100112.13;5028559;28;20140;-75
2024/01/08 09:05:03;;;;;;;10.50;6.68;;;;;;;-6.76;62.35;100105.53;5030838;28;20116;-76
2024/01/08 09:07:28;;;;;;;12.98;7.45;;;;;;;-6.43;63.51;100108.31;5032002;28;20457;-76
2024/01/08 09:09:54;;;;;;;17.95;7.00;;;;;;;-6.46;63.77;100115.47;5026539;28;20071;-76
2024/01/08 09:12:19;;;;;;;13.85;7.22;;;;;;;-6.73;62.45;100117.47;5030167;28;20025;-75
2024/01/08 09:14:44;;;;;;;14.02;6.40;;;;;;;-6.86;62.67;100120.91;5031683;28;20037;-75
2024/01/08 09:17:10;;;;;;;14.13;7.70;;;;;;;-6.62;62.06;100120.13;5029884;28;20083;-76
2024/01/08 09:19:37;;;;;;;15.07;6.85;;;;;;;-6.21;64.39;100121.41;5024495;28;20025;-75
2024/01/08 09:22:03;;;;;;;14.13;7.53;;;;;;;-6.29;62.83;100122.91;5031579;28;20033;-76
2024/01/08 09:24:28;;;;;;;23.27;8.70;;;;;;;-6.25;62.66;100134.75;5029665;28;20040;-75
2024/01/08 09:26:54;;;;;;;15.18;8.02;;;;;;;-5.80;62.86;100130.50;5025305;28;20033;-75
2024/01/08 09:29:19;;;;;;;13.35;7.85;;;;;;;-6.57;61.59;100143.97;5029024;28;20067;-75
2024/01/08 09:31:45;;;;;;;21.70;7.88;;;;;;;-6.06;62.66;100142.00;5029292;28;20119;-75
2024/01/08 09:34:10;;;;;;;17.83;8.88;;;;;;;-6.19;62.34;100131.69;5028657;28;20029;-75
2024/01/08 09:36:36;;;;;;;16.77;7.63;;;;;;;-6.49;62.30;100131.31;5031006;28;20117;-75
2024/01/08 09:39:02;;;;;;;13.95;8.07;;;;;;;-6.18;63.24;100136.75;5025868;28;20124;-76
2024/01/08 09:41:27;;;;;;;17.05;9.43;;;;;;;-6.18;62.12;100147.16;5029652;28;20021;-75
2024/01/08 09:43:55;;;;;;;20.35;8.70;;;;;;;-6.22;62.37;100150.09;5028454;28;20555;-75
2024/01/08 09:46:26;;;;;;;19.08;8.15;;;;;;;-6.06;63.49;100155.00;5029368;28;20398;-75
2024/01/08 09:48:54;;;;;;;22.10;8.48;;;;;;;-5.90;63.40;100150.34;5032960;28;20038;-76
2024/01/08 09:51:19;;;;;;;16.42;8.05;;;;;;;-6.27;62.71;100147.81;5036472;28;20378;-76
2024/01/08 09:53:45;;;;;;;13.80;7.90;;;;;;;-6.29;61.90;100159.28;5036224;28;20034;-76
2024/01/08 09:56:13;;;;;;;15.90;8.15;;;;;;;-6.27;63.95;100149.59;5036227;28;20033;-75
2024/01/08 09:58:38;;;;;;;18.48;9.20;;;;;;;-6.36;62.44;100147.66;5032573;28;20025;-76
2024/01/08 10:01:04;;;;;;;19.10;8.93;;;;;;;-5.67;63.41;100154.63;5028985;28;20033;-78
2024/01/08 10:03:30;;;;;;;20.85;10.02;;;;;;;-6.39;62.62;100151.31;5026109;28;20108;-76
2024/01/08 10:05:56;;;;;;;19.35;8.18;;;;;;;-5.99;63.96;100159.66;5023916;28;20018;-76
2024/01/08 10:08:22;;;;;;;16.35;9.00;;;;;;;-5.73;65.04;100162.91;5022240;28;21865;-76
2024/01/08 10:10:48;;;;;;;16.80;9.85;;;;;;;-6.12;62.18;100154.53;5020668;28;20088;-76
2024/01/08 10:13:14;;;;;;;18.60;9.32;;;;;;;-6.31;63.34;100161.16;5021590;28;20025;-76
2024/01/08 10:15:46;;;;;;;16.08;8.98;;;;;;;-5.87;65.63;100153.53;5022401;28;20460;-76
2024/01/08 10:18:15;;;;;;;17.30;8.98;;;;;;;-6.39;63.09;100155.66;5020386;28;20037;-76
2024/01/08 10:20:42;;;;;;;16.33;9.77;;;;;;;-6.63;63.11;100166.03;5018657;28;20164;-76
2024/01/08 10:23:08;;;;;;;21.30;8.70;;;;;;;-5.78;65.96;100167.59;5020406;28;20048;-76
2024/01/08 10:25:35;;;;;;;18.65;8.93;;;;;;;-5.82;63.61;100174.81;5023556;28;20831;-76
2024/01/08 10:28:02;;;;;;;16.88;8.73;;;;;;;-6.14;62.82;100158.97;5021237;28;20029;-76
2024/01/08 10:30:28;;;;;;;21.38;10.13;;;;;;;-6.05;62.51;100160.09;5021389;28;20037;-76
2024/01/08 10:32:58;;;;;;;16.42;9.18;;;;;;;-6.08;62.87;100162.06;5020724;28;20108;-76
2024/01/08 10:35:23;;;;;;;20.38;9.30;;;;;;;-6.21;62.92;100154.34;5022111;28;20087;-76
2024/01/08 10:37:50;;;;;;;18.98;9.15;;;;;;;-6.45;62.74;100153.50;5022253;28;20033;-75
2024/01/08 10:40:16;;;;;;;20.95;10.15;;;;;;;-5.88;63.84;100153.66;5022960;28;20035;-76
2024/01/08 10:42:44;;;;;;;16.63;8.43;;;;;;;-5.35;66.02;100158.25;5027896;28;20052;-76
2024/01/08 10:45:09;;;;;;;17.63;9.00;;;;;;;-5.82;63.18;100164.41;5026707;28;20052;-75
2024/01/08 10:47:36;;;;;;;13.70;8.70;;;;;;;-5.74;62.69;100169.88;5023591;28;20155;-75
2024/01/08 10:50:05;;;;;;;26.52;10.57;;;;;;;-6.00;62.53;100167.53;5026401;28;20064;-75
2024/01/08 10:52:33;;;;;;;20.02;9.63;;;;;;;-6.12;63.16;100166.69;5030387;28;20029;-75
2024/01/08 10:55:00;;;;;;;19.80;9.35;;;;;;;-5.72;65.36;100167.16;5031395;28;20052;-75
2024/01/08 10:57:43;;;;;;;20.52;10.35;;;;;;;-6.17;63.15;100171.38;5032580;28;20470;-75
2024/01/08 11:00:10;;;;;;;19.80;9.23;;;;;;;-6.11;63.98;100171.75;5025385;28;20031;-75
2024/01/08 11:02:37;;;;;;;21.67;8.05;;;;;;;-6.47;62.65;100170.97;5026909;28;20040;-75
2024/01/08 11:05:05;;;;;;;17.35;8.88;;;;;;;-6.37;62.90;100165.00;5024083;28;20033;-76
2024/01/08 11:07:37;;;;;;;16.10;9.30;;;;;;;-6.35;63.35;100181.31;5040155;28;20087;-75
2024/01/08 11:10:09;;;;;;;17.05;9.82;;;;;;;-6.23;63.21;100170.06;5030912;28;20120;-75
2024/01/08 11:12:41;;;;;;;17.13;9.30;;;;;;;-6.25;62.67;100171.94;5030113;28;20037;-75
2024/01/08 11:15:07;;;;;;;17.80;9.95;;;;;;;-6.34;62.99;100171.75;5027580;28;20474;-76